Time;durP1;ratioP1;P1;durP2;ratioP2;P2;SDS_P1;SDS_P2;PMS_P1;PMS_P2;Temp;Humidity;BMP_temperature;BMP_pressure;BME280_temperature;BME280_humidity;BME280_pressure;Samples;Min_cycle;Max_cycle;Signal;HPM_P1;HPM_P2
2023/04/05 00:01:59;;;;;;;6.63;3.60;;;;;;;6.77;48.57;100697.41;4992630;28;20133;-81
2023/04/05 00:04:27;;;;;;;6.22;4.05;;;;;;;6.76;48.84;100706.13;4993946;28;20058;-81
2023/04/05 00:06:56;;;;;;;7.82;3.67;;;;;;;6.75;48.74;100688.72;4991671;28;20054;-81
2023/04/05 00:09:22;;;;;;;6.68;3.75;;;;;;;6.73;48.80;100688.75;4992436;28;20552;-81
2023/04/05 00:11:49;;;;;;;6.82;3.88;;;;;;;6.72;48.90;100681.81;4993476;28;20058;-81
2023/04/05 00:14:15;;;;;;;5.88;3.75;;;;;;;6.72;48.74;100678.31;4991952;28;20528;-81
2023/04/05 00:16:42;;;;;;;5.78;3.70;;;;;;;6.68;48.46;100681.91;4992465;28;20599;-80
2023/04/05 00:19:11;;;;;;;8.13;4.05;;;;;;;6.63;48.65;100679.44;4992385;28;20062;-81
2023/04/05 00:21:38;;;;;;;6.18;3.78;;;;;;;6.58;48.48;100673.47;4993656;28;20610;-81
2023/04/05 00:24:06;;;;;;;6.38;3.38;;;;;;;6.53;48.59;100668.34;4993339;28;20076;-81
2023/04/05 00:26:32;;;;;;;8.30;4.15;;;;;;;6.48;48.73;100665.00;4992499;28;20109;-81
2023/04/05 00:28:59;;;;;;;8.57;4.30;;;;;;;6.45;48.88;100673.78;4992106;28;20061;-81
2023/04/05 00:31:25;;;;;;;5.03;3.50;;;;;;;6.41;49.22;100668.66;4993458;28;20058;-81
2023/04/05 00:33:52;;;;;;;7.13;3.55;;;;;;;6.41;49.24;100669.53;4991897;28;20452;-81
2023/04/05 00:36:19;;;;;;;7.22;4.00;;;;;;;6.39;49.28;100666.06;4992564;28;20501;-81
2023/04/05 00:38:48;;;;;;;6.32;3.40;;;;;;;6.36;49.08;100666.16;4992587;28;20075;-80
2023/04/05 00:41:15;;;;;;;8.02;4.38;;;;;;;6.36;49.03;100672.22;4992906;28;20062;-80
2023/04/05 00:43:41;;;;;;;5.90;3.13;;;;;;;6.34;49.07;100660.97;4991838;28;20477;-81
2023/04/05 00:46:08;;;;;;;7.35;3.63;;;;;;;6.33;49.34;100667.09;4992292;28;20643;-81
2023/04/05 00:48:36;;;;;;;6.10;3.75;;;;;;;6.31;49.14;100665.44;4992844;28;20145;-81
2023/04/05 00:51:03;;;;;;;4.43;3.20;;;;;;;6.29;49.45;100664.59;4992764;28;20437;-80
2023/04/05 00:53:30;;;;;;;7.60;4.07;;;;;;;6.27;49.44;100659.38;4992779;28;20077;-80
2023/04/05 00:55:57;;;;;;;5.88;3.28;;;;;;;6.26;49.64;100655.06;4991856;28;20050;-81
2023/04/05 00:58:24;;;;;;;4.88;3.58;;;;;;;6.25;49.39;100653.34;4991141;28;20058;-81
2023/04/05 01:01:00;;;;;;;5.68;3.20;;;;;;;6.22;49.12;100656.03;4991211;28;20061;-80
2023/04/05 01:03:30;;;;;;;5.43;3.38;;;;;;;6.22;49.35;100649.06;4993046;28;20054;-81
2023/04/05 01:06:08;;;;;;;5.20;2.85;;;;;;;6.20;49.09;100655.22;4991927;28;20113;-81
2023/04/05 01:08:59;;;;;;;5.60;3.30;;;;;;;6.18;48.77;100646.53;4991233;28;20513;-81
2023/04/05 01:11:26;;;;;;;8.48;3.25;;;;;;;6.20;49.29;100644.78;4992543;28;20757;-80
2023/04/05 01:13:59;;;;;;;6.43;3.28;;;;;;;6.15;49.23;100639.63;4992571;28;20054;-80
2023/04/05 01:16:26;;;;;;;8.65;3.55;;;;;;;6.15;49.23;100638.78;4991726;28;20050;-80
2023/04/05 01:18:55;;;;;;;4.70;3.10;;;;;;;6.10;49.05;100634.50;4991902;28;20469;-80
2023/04/05 01:21:36;;;;;;;6.53;3.22;;;;;;;6.03;48.73;100638.19;4992289;28;20062;-80
2023/04/05 01:24:24;;;;;;;4.07;3.08;;;;;;;6.01;48.95;100639.94;4992393;28;20050;-80
2023/04/05 01:27:21;;;;;;;5.13;3.28;;;;;;;5.93;48.86;100641.88;4990130;28;20054;-81
2023/04/05 01:30:36;;;;;;;5.03;3.03;;;;;;;5.89;48.90;100635.84;4977675;28;20065;-80
2023/04/05 01:33:24;;;;;;;8.30;3.10;;;;;;;5.86;48.72;100636.78;4991904;28;20054;-80
2023/04/05 01:36:15;;;;;;;6.97;3.13;;;;;;;5.82;49.06;100635.16;4991434;28;20065;-80
2023/04/05 01:38:45;;;;;;;5.32;3.47;;;;;;;5.81;49.43;100627.34;4989989;28;20058;-80
2023/04/05 01:41:11;;;;;;;6.97;3.55;;;;;;;5.76;49.54;100630.06;4991834;28;20062;-81
2023/04/05 01:43:38;;;;;;;6.05;3.58;;;;;;;5.72;49.68;100634.50;4991904;28;20120;-80
2023/04/05 01:46:05;;;;;;;5.05;3.33;;;;;;;5.69;49.69;100625.88;4990188;28;20113;-81
2023/04/05 01:48:31;;;;;;;7.32;3.45;;;;;;;5.67;50.01;100623.28;4991518;28;20062;-80
2023/04/05 01:50:57;;;;;;;8.45;3.28;;;;;;;5.65;49.94;100619.00;4991700;28;20095;-80
2023/04/05 01:53:25;;;;;;;7.18;3.53;;;;;;;5.64;49.92;100619.91;4990445;28;20058;-81
2023/04/05 01:55:51;;;;;;;5.88;3.10;;;;;;;5.63;50.18;100619.03;4990749;28;20425;-80
2023/04/05 01:58:17;;;;;;;5.72;3.50;;;;;;;5.61;50.24;100613.84;4989927;28;20187;-81
2023/04/05 02:00:44;;;;;;;10.60;3.35;;;;;;;5.61;50.00;100610.38;4991605;28;20054;-80
2023/04/05 02:03:10;;;;;;;6.50;3.40;;;;;;;5.61;50.13;100616.44;4991326;28;20054;-80
2023/04/05 02:05:37;;;;;;;6.03;3.45;;;;;;;5.60;49.79;100606.03;4990934;28;20062;-81
2023/04/05 02:08:04;;;;;;;5.80;3.65;;;;;;;5.58;50.13;100611.28;4991051;28;20476;-80
2023/04/05 02:10:30;;;;;;;7.07;3.50;;;;;;;5.58;50.18;100611.28;4991855;28;20121;-81
2023/04/05 02:12:57;;;;;;;8.68;3.33;;;;;;;5.60;49.89;100608.63;4991064;28;20058;-81
2023/04/05 02:15:23;;;;;;;7.35;3.88;;;;;;;5.60;49.99;100609.50;4989402;28;20413;-80
2023/04/05 02:17:52;;;;;;;6.32;3.17;;;;;;;5.63;50.09;100623.38;4989584;28;20144;-81
2023/04/05 02:20:19;;;;;;;5.32;3.40;;;;;;;5.66;50.00;100623.31;4989972;28;20497;-81
2023/04/05 02:22:46;;;;;;;5.70;3.17;;;;;;;5.68;49.92;100617.16;4991077;28;20062;-81
2023/04/05 02:25:12;;;;;;;5.78;3.25;;;;;;;5.70;50.11;100618.00;4990716;28;20081;-81
2023/04/05 02:27:39;;;;;;;6.90;2.92;;;;;;;5.73;49.62;100615.28;4990630;28;20070;-81
2023/04/05 02:30:06;;;;;;;5.75;3.33;;;;;;;5.76;49.71;100613.53;4991169;28;20070;-81
2023/04/05 02:32:32;;;;;;;5.55;2.97;;;;;;;5.75;49.47;100615.28;4991056;28;20113;-81
2023/04/05 02:34:59;;;;;;;5.00;3.15;;;;;;;5.74;49.49;100611.81;4989051;28;20596;-81
2023/04/05 02:37:26;;;;;;;6.55;3.42;;;;;;;5.76;49.41;100614.41;4990560;28;20054;-81
2023/04/05 02:39:53;;;;;;;5.47;3.22;;;;;;;5.75;49.53;100610.03;4989842;28;20113;-81
2023/04/05 02:42:19;;;;;;;6.18;3.10;;;;;;;5.72;49.39;100612.75;4989393;28;20476;-81
2023/04/05 02:44:46;;;;;;;6.20;3.17;;;;;;;5.71;49.42;100613.63;4991006;28;20066;-81
2023/04/05 02:47:20;;;;;;;5.15;2.95;;;;;;;5.69;49.58;100608.44;4990389;28;20054;-80
2023/04/05 02:49:47;;;;;;;6.80;3.67;;;;;;;5.67;49.32;100604.13;4990511;28;20571;-81
2023/04/05 02:52:15;;;;;;;8.02;3.65;;;;;;;5.66;49.54;100603.28;4989268;28;20066;-81
2023/04/05 02:54:42;;;;;;;5.60;3.60;;;;;;;5.63;49.42;100598.13;4989132;28;20464;-81
2023/04/05 02:57:10;;;;;;;4.68;3.13;;;;;;;5.61;49.34;100600.78;4989972;28;20061;-81
2023/04/05 02:59:37;;;;;;;6.32;3.60;;;;;;;5.59;49.70;100599.97;4989405;28;20058;-81
2023/04/05 03:02:09;;;;;;;6.47;3.33;;;;;;;5.56;48.74;100601.75;4990420;28;20137;-81
2023/04/05 03:04:35;;;;;;;5.93;3.30;;;;;;;5.55;49.47;100598.31;4990154;28;20061;-80
2023/04/05 03:07:03;;;;;;;4.95;3.17;;;;;;;5.52;49.60;100592.28;4989389;28;20069;-81
2023/04/05 03:09:33;;;;;;;5.90;3.20;;;;;;;5.51;49.84;100588.81;4990496;28;20061;-81
2023/04/05 03:12:00;;;;;;;5.88;3.20;;;;;;;5.49;49.72;100588.00;4989273;28;20107;-81
2023/04/05 03:14:27;;;;;;;6.30;3.97;;;;;;;5.48;49.85;100591.50;4988849;28;20054;-81
2023/04/05 03:16:53;;;;;;;4.75;3.35;;;;;;;5.45;49.70;100583.72;4988366;28;20112;-81
2023/04/05 03:19:21;;;;;;;6.35;3.35;;;;;;;5.41;49.94;100577.72;4988670;28;20548;-80
2023/04/05 03:21:48;;;;;;;8.00;3.67;;;;;;;5.40;50.14;100590.81;4990118;28;20096;-80
2023/04/05 03:24:15;;;;;;;4.05;2.92;;;;;;;5.39;49.94;100589.09;4988988;28;20058;-80
2023/04/05 03:26:45;;;;;;;6.30;3.50;;;;;;;5.35;49.66;100583.94;4988209;28;20050;-81
2023/04/05 03:29:12;;;;;;;6.03;3.80;;;;;;;5.37;49.87;100590.88;4990127;28;20066;-80
2023/04/05 03:31:38;;;;;;;6.22;3.40;;;;;;;5.34;49.90;100587.44;4988429;28;20108;-80
2023/04/05 03:34:05;;;;;;;6.75;3.15;;;;;;;5.33;50.06;100583.13;4990019;28;20088;-80
2023/04/05 03:36:41;;;;;;;4.63;3.13;;;;;;;5.31;49.97;100577.06;4989738;28;20109;-81
2023/04/05 03:39:09;;;;;;;4.70;3.20;;;;;;;5.29;50.08;100578.84;4990146;28;20117;-80
2023/04/05 03:41:36;;;;;;;5.10;3.30;;;;;;;5.28;49.96;100579.75;4989905;28;20473;-80
2023/04/05 03:44:03;;;;;;;4.43;3.35;;;;;;;5.27;49.98;100577.19;4988675;28;20062;-80
2023/04/05 03:46:30;;;;;;;6.03;3.33;;;;;;;5.24;50.41;100585.06;4987956;28;20047;-81
2023/04/05 03:48:59;;;;;;;6.25;3.20;;;;;;;5.21;49.96;100586.00;4989461;28;20065;-80
2023/04/05 03:51:26;;;;;;;7.85;3.38;;;;;;;5.20;50.18;100586.88;4990033;28;20085;-81
2023/04/05 03:53:53;;;;;;;7.13;3.70;;;;;;;5.19;50.57;100579.94;4990127;28;20058;-81
2023/04/05 03:56:20;;;;;;;9.13;3.70;;;;;;;5.17;50.37;100582.59;5065804;23;20141;-77
2023/04/05 03:58:46;;;;;;;8.88;3.83;;;;;;;5.18;50.42;100575.59;4990531;28;20054;-79
2023/04/05 04:01:14;;;;;;;5.95;3.50;;;;;;;5.16;50.65;100578.25;4990704;28;20054;-77
2023/04/05 04:03:40;;;;;;;5.72;3.40;;;;;;;5.15;50.66;100578.28;4990913;28;20054;-78
2023/04/05 04:06:07;;;;;;;4.53;3.30;;;;;;;5.12;50.45;100576.59;4990550;28;20058;-78
2023/04/05 04:08:33;;;;;;;8.32;3.70;;;;;;;5.11;50.70;100581.84;5005467;28;20501;-77
2023/04/05 04:11:00;;;;;;;7.90;3.42;;;;;;;5.07;50.58;100576.72;4990799;28;20062;-77
2023/04/05 04:13:27;;;;;;;7.47;3.40;;;;;;;5.06;50.63;100581.94;4990737;28;20062;-78
2023/04/05 04:15:53;;;;;;;5.53;3.10;;;;;;;5.03;50.28;100572.44;4990123;28;20058;-78
2023/04/05 04:18:20;;;;;;;6.45;3.30;;;;;;;5.03;50.51;100576.78;4990194;28;20487;-78
2023/04/05 04:20:47;;;;;;;7.13;3.75;;;;;;;5.00;50.68;100577.72;4990504;28;20054;-77
2023/04/05 04:23:13;;;;;;;8.32;3.63;;;;;;;4.99;50.80;100580.34;4990549;28;20062;-78
2023/04/05 04:25:44;;;;;;;9.30;3.65;;;;;;;4.96;50.43;100581.28;4990274;28;20150;-78
2023/04/05 04:28:11;;;;;;;5.57;3.13;;;;;;;4.95;50.59;100584.78;4990274;28;20054;-77
2023/04/05 04:30:38;;;;;;;10.07;3.58;;;;;;;4.92;50.44;100584.84;4990501;28;20058;-78
2023/04/05 04:33:07;;;;;;;7.53;3.25;;;;;;;4.90;50.61;100584.03;5005527;28;20670;-78
2023/04/05 04:35:37;;;;;;;10.32;3.17;;;;;;;4.89;50.45;100575.31;4990223;28;20137;-78
2023/04/05 04:38:06;;;;;;;7.70;3.55;;;;;;;4.86;50.49;100577.97;4990252;28;20058;-78
2023/04/05 04:40:38;;;;;;;6.78;3.58;;;;;;;4.83;50.54;100571.09;4990392;28;20078;-78
2023/04/05 04:43:08;;;;;;;6.78;3.28;;;;;;;4.81;50.24;100579.84;4991492;28;20058;-79
2023/04/05 04:45:36;;;;;;;4.35;2.95;;;;;;;4.79;50.49;100573.81;4993948;28;20097;-78
2023/04/05 04:48:04;;;;;;;7.88;3.60;;;;;;;4.77;50.62;100572.94;5008596;28;20117;-78
2023/04/05 04:50:31;;;;;;;4.25;2.83;;;;;;;4.74;50.58;100566.06;4993806;28;20495;-78
2023/04/05 04:52:58;;;;;;;4.93;2.67;;;;;;;4.72;50.82;100567.84;4993802;28;20058;-78
2023/04/05 04:55:26;;;;;;;6.35;3.47;;;;;;;4.73;50.33;100568.69;4993483;28;20058;-77
2023/04/05 04:57:54;;;;;;;4.38;3.03;;;;;;;4.73;50.83;100569.56;4993558;28;20064;-77
2023/04/05 05:00:22;;;;;;;8.63;3.42;;;;;;;4.76;51.03;100573.84;4993534;28;20483;-78
2023/04/05 05:02:51;;;;;;;5.18;3.13;;;;;;;4.75;50.65;100572.13;4993582;28;20097;-77
2023/04/05 05:05:22;;;;;;;9.00;3.17;;;;;;;4.76;50.96;100572.13;4993138;28;20454;-78
2023/04/05 05:07:51;;;;;;;6.00;3.40;;;;;;;4.76;50.43;100569.50;4993157;28;20062;-77
2023/04/05 05:10:18;;;;;;;8.05;3.35;;;;;;;4.76;50.62;100561.69;4993762;28;20069;-78
2023/04/05 05:12:45;;;;;;;9.13;3.50;;;;;;;4.76;50.56;100572.13;5008582;28;20054;-78
2023/04/05 05:15:11;;;;;;;10.45;3.30;;;;;;;4.74;50.61;100565.22;4992983;28;20504;-78
2023/04/05 05:17:38;;;;;;;11.07;3.33;;;;;;;4.73;50.42;100572.16;4992643;28;20577;-78
2023/04/05 05:20:09;;;;;;;4.75;3.03;;;;;;;4.72;50.46;100566.97;4993211;28;20712;-78
2023/04/05 05:22:37;;;;;;;5.70;3.20;;;;;;;4.71;50.74;100568.72;4993267;28;20754;-78
2023/04/05 05:25:08;;;;;;;5.97;2.85;;;;;;;4.69;50.37;100575.72;4993096;28;20136;-78
2023/04/05 05:27:35;;;;;;;6.20;3.25;;;;;;;4.70;50.39;100572.22;5007808;28;20062;-79
2023/04/05 05:30:02;;;;;;;7.35;3.40;;;;;;;4.65;50.51;100572.31;4993269;28;20089;-77
2023/04/05 05:32:29;;;;;;;6.25;3.00;;;;;;;4.64;50.50;100575.78;4999447;28;20116;-79
2023/04/05 05:34:55;;;;;;;4.13;3.08;;;;;;;4.62;50.50;100571.50;5000791;28;20050;-77
2023/04/05 05:37:30;;;;;;;5.13;2.97;;;;;;;4.56;50.22;100573.34;5007261;28;20140;-78
2023/04/05 05:39:56;;;;;;;7.45;3.38;;;;;;;4.59;50.77;100566.38;5012740;28;20054;-78
2023/04/05 05:42:23;;;;;;;6.97;3.30;;;;;;;4.58;50.93;100565.50;5012254;28;20049;-78
2023/04/05 05:44:49;;;;;;;5.40;3.50;;;;;;;4.58;50.92;100560.28;4994782;28;20160;-78
2023/04/05 05:47:16;;;;;;;4.60;2.83;;;;;;;4.58;50.80;100555.06;5011731;28;20445;-79
2023/04/05 05:49:42;;;;;;;6.35;3.42;;;;;;;4.58;50.69;100560.28;4991954;28;20054;-79
2023/04/05 05:52:09;;;;;;;5.53;3.30;;;;;;;4.56;50.76;100557.69;5003724;28;20125;-78
2023/04/05 05:54:36;;;;;;;5.35;3.08;;;;;;;4.58;50.97;100562.88;5012001;28;20072;-78
2023/04/05 05:57:02;;;;;;;4.78;3.25;;;;;;;4.57;51.03;100569.84;5009958;28;20060;-78
2023/04/05 05:59:29;;;;;;;5.90;2.80;;;;;;;4.59;51.20;100566.38;5010873;28;20054;-79
2023/04/05 06:01:56;;;;;;;6.32;3.47;;;;;;;4.60;50.88;100562.88;5010792;28;20062;-78
2023/04/05 06:04:22;;;;;;;5.18;3.13;;;;;;;4.61;50.90;100569.78;5000303;28;20133;-78
2023/04/05 06:06:49;;;;;;;5.65;3.35;;;;;;;4.62;51.36;100569.75;4990933;28;20055;-78
2023/04/05 06:09:16;;;;;;;7.20;3.20;;;;;;;4.65;51.41;100577.53;4991015;28;20156;-77
2023/04/05 06:11:42;;;;;;;5.85;3.38;;;;;;;4.67;51.02;100572.25;4990899;28;20088;-78
2023/04/05 06:14:22;;;;;;;6.15;3.47;;;;;;;4.71;51.40;100568.72;4992243;28;20068;-79
2023/04/05 06:16:49;;;;;;;7.25;3.30;;;;;;;4.73;51.64;100566.94;4999817;28;20145;-78
2023/04/05 06:19:15;;;;;;;4.85;3.08;;;;;;;4.77;51.64;100572.94;4992346;28;20549;-78
2023/04/05 06:21:42;;;;;;;11.50;3.80;;;;;;;4.79;51.36;100574.63;4992176;28;20064;-78
2023/04/05 06:24:09;;;;;;;13.45;3.88;;;;;;;4.80;51.29;100571.16;4990959;28;20161;-76
2023/04/05 06:26:35;;;;;;;6.22;3.50;;;;;;;4.85;51.52;100572.81;4991399;28;20058;-78
2023/04/05 06:29:02;;;;;;;8.95;3.28;;;;;;;4.87;51.63;100565.81;4990576;28;20541;-79
2023/04/05 06:31:33;;;;;;;6.38;3.78;;;;;;;4.89;51.45;100570.09;4990752;28;20093;-78
2023/04/05 06:34:00;;;;;;;6.90;3.70;;;;;;;4.95;51.65;100569.13;4992091;28;20062;-79
2023/04/05 06:36:30;;;;;;;7.95;3.80;;;;;;;4.97;51.67;100566.50;4989779;28;20081;-78
2023/04/05 06:38:58;;;;;;;7.90;3.38;;;;;;;5.01;51.77;100571.59;4995548;28;20045;-78
2023/04/05 06:41:26;;;;;;;6.10;3.50;;;;;;;5.04;51.96;100561.09;5005392;28;20046;-78
2023/04/05 06:43:52;;;;;;;7.68;3.65;;;;;;;5.08;51.75;100565.38;4990418;28;20057;-79
2023/04/05 06:46:19;;;;;;;8.20;3.28;;;;;;;5.15;51.89;100570.44;5005947;28;20062;-79
2023/04/05 06:48:47;;;;;;;5.97;3.40;;;;;;;5.20;52.09;100568.63;5009949;28;20152;-78
2023/04/05 06:51:13;;;;;;;7.50;3.35;;;;;;;5.25;51.86;100564.16;4999461;28;20127;-78
2023/04/05 06:53:40;;;;;;;6.25;3.33;;;;;;;5.31;51.82;100561.41;4993467;28;20422;-78
2023/04/05 06:56:07;;;;;;;5.93;3.38;;;;;;;5.37;51.75;100564.75;5010516;28;20200;-78
2023/04/05 06:58:34;;;;;;;9.18;4.35;;;;;;;5.44;51.78;100569.81;5010984;28;20050;-78
2023/04/05 07:01:00;;;;;;;7.57;4.63;;;;;;;5.50;51.80;100571.44;5011085;28;20490;-79
2023/04/05 07:03:28;;;;;;;6.10;4.00;;;;;;;5.57;51.49;100569.56;5009748;28;20135;-78
2023/04/05 07:05:58;;;;;;;5.70;3.65;;;;;;;5.63;51.74;100565.91;5009921;28;20506;-79
2023/04/05 07:08:25;;;;;;;5.20;3.40;;;;;;;5.70;51.77;100560.53;5010594;28;20140;-78
2023/04/05 07:10:52;;;;;;;8.20;3.25;;;;;;;5.77;51.81;100563.84;5005466;28;20058;-79
2023/04/05 07:13:20;;;;;;;4.85;2.90;;;;;;;5.84;51.58;100560.19;5001430;28;20124;-77
2023/04/05 07:15:47;;;;;;;5.68;3.20;;;;;;;5.91;51.51;100566.13;4991303;28;20056;-78
2023/04/05 07:18:16;;;;;;;5.95;3.33;;;;;;;5.98;51.48;100567.69;5002117;28;20056;-78
2023/04/05 07:20:48;;;;;;;4.55;2.50;;;;;;;6.04;50.88;100568.47;4996786;28;20082;-79
2023/04/05 07:23:15;;;;;;;9.20;2.92;;;;;;;6.10;51.16;100569.16;4990979;28;20126;-78
2023/04/05 07:25:42;;;;;;;6.00;3.20;;;;;;;6.16;51.27;100562.09;4992247;28;20133;-77
2023/04/05 07:28:09;;;;;;;4.75;2.85;;;;;;;6.22;51.61;100554.06;5010578;28;20148;-78
2023/04/05 07:30:36;;;;;;;5.80;2.88;;;;;;;6.28;51.19;100568.75;5004393;28;20051;-77
2023/04/05 07:33:03;;;;;;;5.85;3.10;;;;;;;6.33;51.00;100566.88;4990694;28;20061;-77
2023/04/05 07:35:30;;;;;;;6.57;3.55;;;;;;;6.37;51.30;100566.75;5002310;28;20126;-77
2023/04/05 07:37:56;;;;;;;4.82;3.03;;;;;;;6.42;50.87;100560.56;4998623;28;20046;-77
2023/04/05 07:40:23;;;;;;;6.32;3.20;;;;;;;6.48;51.00;100556.00;4990035;28;20054;-77
2023/04/05 07:42:50;;;;;;;6.15;3.20;;;;;;;6.52;50.92;100551.53;4989988;28;20141;-78
2023/04/05 07:45:16;;;;;;;9.13;3.20;;;;;;;6.57;51.00;100560.13;5005720;28;20050;-78
2023/04/05 07:47:43;;;;;;;8.15;2.72;;;;;;;6.62;51.19;100558.22;4990595;28;20523;-78
2023/04/05 07:50:13;;;;;;;6.38;3.25;;;;;;;6.69;50.99;100558.06;4989736;28;20066;-78
2023/04/05 07:52:41;;;;;;;6.25;3.15;;;;;;;6.77;50.90;100559.56;4990940;28;20117;-78
2023/04/05 07:55:08;;;;;;;7.82;3.60;;;;;;;6.82;50.74;100546.34;4990795;28;20137;-77
2023/04/05 07:57:35;;;;;;;7.13;3.50;;;;;;;6.89;50.90;100547.03;4990552;28;20062;-78
2023/04/05 08:00:03;;;;;;;5.68;3.25;;;;;;;6.95;50.83;100541.59;4990953;28;20065;-77
2023/04/05 08:02:30;;;;;;;6.38;3.42;;;;;;;7.01;50.88;100537.97;4989539;28;20419;-77
2023/04/05 08:04:56;;;;;;;4.72;3.45;;;;;;;7.08;50.54;100543.88;4990359;28;20051;-77
2023/04/05 08:07:24;;;;;;;6.05;3.00;;;;;;;7.14;50.90;100547.16;5005180;28;20054;-77
2023/04/05 08:09:50;;;;;;;7.78;4.10;;;;;;;7.20;50.98;100545.25;4990524;28;20137;-78
2023/04/05 08:12:17;;;;;;;6.10;3.65;;;;;;;7.25;51.04;100553.84;4989359;28;20736;-78
2023/04/05 08:14:44;;;;;;;7.10;3.75;;;;;;;7.32;50.59;100554.53;4988699;28;20412;-78
2023/04/05 08:17:10;;;;;;;6.53;3.78;;;;;;;7.38;50.88;100557.81;4989615;28;20511;-77
2023/04/05 08:19:37;;;;;;;5.72;3.90;;;;;;;7.44;50.51;100546.25;5008732;28;20053;-78
2023/04/05 08:22:03;;;;;;;5.32;3.80;;;;;;;7.49;50.77;100548.75;4994124;28;20058;-78
2023/04/05 08:24:30;;;;;;;5.03;3.30;;;;;;;7.54;50.39;100558.19;4993628;28;20058;-77
2023/04/05 08:26:56;;;;;;;6.05;3.85;;;;;;;7.60;50.33;100546.66;4992028;28;20105;-78
2023/04/05 08:29:23;;;;;;;6.35;3.80;;;;;;;7.65;50.50;100550.00;4993916;28;20073;-75
2023/04/05 08:31:50;;;;;;;5.07;3.70;;;;;;;7.71;50.55;100548.06;4993572;28;20053;-76
2023/04/05 08:34:16;;;;;;;9.73;4.03;;;;;;;7.78;50.46;100546.97;4993504;28;20562;-79
2023/04/05 08:36:43;;;;;;;5.45;3.67;;;;;;;7.85;50.61;100548.47;4993137;28;20145;-75
2023/04/05 08:39:10;;;;;;;5.03;3.53;;;;;;;7.92;50.34;100546.50;4992216;28;20455;-77
2023/04/05 08:41:41;;;;;;;8.77;3.88;;;;;;;7.98;50.34;100540.19;4993182;28;20081;-78
2023/04/05 08:44:09;;;;;;;7.28;3.38;;;;;;;8.06;50.40;100546.91;5008318;28;20510;-77
2023/04/05 08:46:37;;;;;;;7.28;3.42;;;;;;;8.15;50.37;100545.72;4993160;28;20446;-77
2023/04/05 08:49:08;;;;;;;4.68;2.85;;;;;;;8.21;49.37;100535.03;4993560;28;20065;-78
2023/04/05 08:51:41;;;;;;;5.10;2.95;;;;;;;8.31;49.69;100546.09;4993579;28;20062;-77
2023/04/05 08:54:07;;;;;;;;;;;;;;;8.39;49.65;100540.56;4993226;28;20060;-78
2023/04/05 08:56:35;;;;;;;4.32;2.97;;;;;;;8.53;50.02;100536.63;4992973;28;20029;-77
2023/04/05 08:59:06;;;;;;;7.68;3.05;;;;;;;8.58;49.24;100535.53;4992324;28;20058;-78
2023/04/05 09:01:37;;;;;;;5.68;3.25;;;;;;;8.67;49.43;100541.38;4993719;28;20060;-77
2023/04/05 09:04:06;;;;;;;5.47;2.95;;;;;;;8.76;49.54;100542.78;5008781;28;20141;-76
2023/04/05 09:06:35;;;;;;;5.13;2.67;;;;;;;8.83;49.38;100531.16;4993118;28;20046;-79
2023/04/05 09:09:06;;;;;;;3.55;2.38;;;;;;;8.90;48.54;100532.63;4992091;28;20062;-77
2023/04/05 09:11:34;;;;;;;5.57;2.70;;;;;;;9.00;48.90;100535.75;4992227;28;20102;-77
2023/04/05 09:14:07;;;;;;;3.75;2.55;;;;;;;9.06;47.63;100537.31;4993888;28;20582;-77
2023/04/05 09:16:40;;;;;;;3.85;2.33;;;;;;;9.16;47.86;100536.03;4992829;28;20070;-79
2023/04/05 09:19:08;;;;;;;5.95;2.70;;;;;;;9.27;49.06;100535.59;4993471;28;20086;-78
2023/04/05 09:21:59;;;;;;;4.47;2.60;;;;;;;9.34;46.85;100544.09;4993197;28;20062;-78
2023/04/05 09:24:38;;;;;;;2.97;2.67;;;;;;;9.46;46.97;100533.13;4992113;28;20403;-76
2023/04/05 09:27:08;;;;;;;6.65;2.55;;;;;;;9.56;46.97;100538.88;4993568;28;20064;-77
2023/04/05 09:29:40;;;;;;;4.60;2.47;;;;;;;9.64;47.98;100536.78;4991415;28;20057;-77
2023/04/05 09:32:09;;;;;;;3.42;2.67;;;;;;;9.72;48.17;100528.56;4993279;28;20105;-77
2023/04/05 09:34:36;;;;;;;7.05;2.78;;;;;;;9.83;48.43;100524.66;4993044;28;20058;-77
2023/04/05 09:37:13;;;;;;;4.63;2.70;;;;;;;9.90;46.21;100515.59;5007295;28;20066;-77
2023/04/05 09:39:41;;;;;;;6.32;3.33;;;;;;;10.03;48.14;100515.94;5007774;28;20094;-77
2023/04/05 09:42:10;;;;;;;9.30;2.97;;;;;;;10.15;48.00;100522.44;4993064;28;20092;-76
2023/04/05 09:45:01;;;;;;;7.35;3.40;;;;;;;10.24;46.54;100529.09;4992688;28;20144;-77
2023/04/05 09:47:35;;;;;;;6.18;3.47;;;;;;;10.39;48.08;100528.41;4991178;28;20089;-78
2023/04/05 09:50:16;;;;;;;4.22;3.28;;;;;;;10.52;48.15;100523.50;4992840;28;20057;-77
2023/04/05 09:52:51;;;;;;;4.50;3.15;;;;;;;10.64;47.05;100519.47;4991553;28;20058;-77
2023/04/05 09:58:04;;;;;;;5.55;3.03;;;;;;;10.92;47.83;100522.63;5028405;23;20429;-83
2023/04/05 10:00:31;;;;;;;5.30;3.80;;;;;;;11.02;47.55;100512.50;4991897;28;20054;-82
2023/04/05 10:02:58;;;;;;;5.35;3.90;;;;;;;11.12;47.58;100515.56;4992244;28;20054;-83
2023/04/05 10:05:27;;;;;;;7.20;4.75;;;;;;;11.21;46.08;100520.38;4989770;28;20620;-83
2023/04/05 10:07:54;;;;;;;6.55;4.95;;;;;;;11.26;46.28;100510.50;4951430;28;20051;-83
2023/04/05 10:10:22;;;;;;;6.35;4.63;;;;;;;11.33;46.38;100514.53;4960851;28;20046;-83
2023/04/05 10:12:50;;;;;;;9.20;4.47;;;;;;;11.44;46.03;100519.28;4978081;28;20058;-82
2023/04/05 10:15:17;;;;;;;8.75;4.57;;;;;;;11.52;46.18;100511.03;4983238;28;20050;-83
2023/04/05 10:17:52;;;;;;;7.90;4.90;;;;;;;11.59;44.47;100511.56;4991172;28;20081;-83
2023/04/05 10:20:20;;;;;;;5.28;3.97;;;;;;;11.69;45.53;100511.94;4991740;28;20089;-83
2023/04/05 10:23:11;;;;;;;7.57;4.15;;;;;;;11.75;44.57;100503.75;4974106;28;20154;-83
2023/04/05 10:25:53;;;;;;;5.30;4.22;;;;;;;11.84;44.54;100491.88;4973807;28;20050;-83
2023/04/05 10:28:31;;;;;;;5.45;4.07;;;;;;;11.93;43.98;100498.47;4991329;28;20133;-83
2023/04/05 10:31:25;;;;;;;7.38;4.20;;;;;;;11.99;44.23;100490.25;4990076;28;20512;-82
2023/04/05 10:34:05;;;;;;;7.72;4.45;;;;;;;12.09;45.16;100496.81;4989508;28;20505;-83
2023/04/05 10:36:47;;;;;;;5.40;4.20;;;;;;;12.10;43.52;100490.59;4986299;28;20059;-83
2023/04/05 10:39:26;;;;;;;5.40;4.03;;;;;;;12.18;43.22;100489.34;4970335;28;20109;-83
2023/04/05 10:42:00;;;;;;;7.78;4.05;;;;;;;12.24;44.88;100489.00;4991337;28;20437;-83
2023/04/05 10:44:31;;;;;;;6.93;4.07;;;;;;;12.30;43.87;100482.56;4962174;28;20070;-83
2023/04/05 10:46:59;;;;;;;6.57;4.43;;;;;;;12.36;44.81;100474.31;4961848;28;20117;-83
2023/04/05 10:49:35;;;;;;;5.70;4.13;;;;;;;12.42;44.09;100479.28;4965304;28;20493;-83
2023/04/05 10:52:02;;;;;;;8.10;3.67;;;;;;;12.58;45.39;100479.31;4967249;28;20058;-83
2023/04/05 10:54:35;;;;;;;7.05;4.03;;;;;;;12.70;43.87;100483.06;4969633;28;20054;-83
2023/04/05 10:57:05;;;;;;;5.68;4.05;;;;;;;12.86;45.53;100475.16;4965971;28;20058;-83
2023/04/05 10:59:40;;;;;;;6.50;4.68;;;;;;;13.01;44.43;100469.97;4969501;28;20061;-83
2023/04/05 11:02:08;;;;;;;7.40;4.33;;;;;;;13.19;44.93;100472.50;4967367;28;20051;-83
2023/04/05 11:04:35;;;;;;;5.55;4.53;;;;;;;13.34;45.26;100462.84;4968993;28;20057;-83
2023/04/05 11:07:15;;;;;;;7.00;4.18;;;;;;;13.52;44.28;100467.09;4967094;28;20554;-83
2023/04/05 11:10:00;;;;;;;6.05;4.20;;;;;;;13.81;43.97;100453.97;4963897;28;20536;-83
2023/04/05 11:12:45;;;;;;;8.98;4.50;;;;;;;14.29;44.80;100470.56;4968339;28;20054;-83
2023/04/05 11:15:27;;;;;;;6.28;4.03;;;;;;;14.81;45.11;100465.63;4990424;28;20149;-83
2023/04/05 11:18:15;;;;;;;6.63;4.07;;;;;;;15.41;44.46;100454.75;4972993;28;20054;-83
2023/04/05 11:20:50;;;;;;;6.50;4.07;;;;;;;16.08;47.21;100445.84;4971387;28;20062;-84
2023/04/05 11:23:22;;;;;;;5.38;4.30;;;;;;;16.76;43.02;100445.53;4954368;28;20113;-84
2023/04/05 11:25:52;;;;;;;7.60;3.95;;;;;;;17.43;43.76;100447.84;4970786;28;20121;-84
2023/04/05 11:28:29;;;;;;;8.50;4.28;;;;;;;18.09;40.84;100441.97;4969798;28;20114;-84
2023/04/05 11:30:57;;;;;;;6.20;3.67;;;;;;;18.73;43.95;100436.13;4954048;28;20058;-84
2023/04/05 11:33:36;;;;;;;4.55;3.60;;;;;;;19.35;39.39;100435.59;4953611;28;20059;-84
2023/04/05 11:36:03;;;;;;;4.05;3.38;;;;;;;19.92;42.37;100428.13;4970828;28;20059;-84
2023/04/05 11:38:30;;;;;;;4.75;3.63;;;;;;;20.38;40.90;100433.16;4970677;28;20062;-84
2023/04/05 11:41:16;;;;;;;3.88;3.00;;;;;;;20.72;37.66;100425.78;4971252;28;20142;-84
2023/04/05 11:43:46;;;;;;;6.18;3.47;;;;;;;21.06;37.31;100428.97;4953939;28;20059;-84
2023/04/05 11:46:17;;;;;;;4.43;3.15;;;;;;;21.35;38.74;100420.06;4953456;28;20141;-84